ELLX Airport Information

Runway Information
Runway 06 Length 13123 ft width 197 ft
Elevation 1158 ft Threshold 0 ft Heading 60
Runway 24 Length 13123 ft Width 197 ft
Elevation 1214 ft Threshold 0 ft Heading 240
Airport Frequencies
Type APP Name APP Frequency 118.9 MHZ
Type ATIS Name ATIS Frequency 135.55 MHZ
Type TWR Name TWR Frequency 118.1 MHZ
Airport Navaids
Type NDB Name Luxembourg Frequency 369 KHZ
Type VOR-DME Name Luxembourg Frequency 112250 KHZ
Type NDB Name Luxembourg Frequency 346 KHZ
Airport Weather Information & NOTAM
ADDS - METARS form results

(2334 UTC 20 September 2021)
Data provider http://aviationweather.gov/metar/data/
 
METAR text: ELLX 202320Z 06005KT 9999 BKN041 11/10 Q1024 NOSIG
Conditions at: ELLX (LUXEMBOURG (AUT), LU) observed 2320 UTC 20 September 2021
Temperature: 11.0°C (52°F)
Dewpoint: 10.0°C (50°F) [RH = 94%]
Pressure (altimeter): 30.24 inches Hg (1024.0 mb)
Winds: from the ENE (60 degrees) at 6 MPH (5 knots; 2.6 m/s)
Visibility: 6 or more miles (10+ km)
Ceiling: 4100 feet AGL
Clouds: broken clouds at 4100 feet AGL
Weather: no significant weather observed at this time

METAR text: ELLX 202250Z 06005KT 9999 BKN040 12/10 Q1024 NOSIG
Conditions at: ELLX (LUXEMBOURG (AUT), LU) observed 2250 UTC 20 September 2021
Temperature: 12.0°C (54°F)
Dewpoint: 10.0°C (50°F) [RH = 88%]
Pressure (altimeter): 30.24 inches Hg (1024.0 mb)
Winds: from the ENE (60 degrees) at 6 MPH (5 knots; 2.6 m/s)
Visibility: 6 or more miles (10+ km)
Ceiling: 4000 feet AGL
Clouds: broken clouds at 4000 feet AGL
Weather: no significant weather observed at this time

Forecast for: ELLX (LUXEMBOURG (AUT), LU)
Text: TAF ELLX 202300Z 2100/2206 06006KT CAVOK
Forecast period: 0000 UTC 21 September 2021 to 0600 UTC 22 September 2021
Forecast type: FROM: standard forecast or significant change
Winds: from the ENE (60 degrees) at 7 MPH (6 knots; 3.1 m/s)
Visibility: 6 or more miles (10+ km)
Ceiling: unknown
Clouds: missing
Weather: NSW  (no significant weather)